Main page
METAR-TAF:

METAR-TAF

Airports :

Indira Gandhi International Airport

New Delhi, India

latitude: 28-34N, longitude: 077-07E, elevation: 220 m

Current weather observation

The report was made 38 minutes ago, at 00:00 UTC
Wind 3 kt from the Northwest
Temperature 17°C
Humidity 77%
Pressure 1010 hPa
Visibility: 2500 m
Few clouds at a height of 10000 ft
mist,

METAR: VIDP 210000Z 32003KT 2500 BR FEW100 17/13 Q1010 NOSIG

Time: 06:08 (00:38 UTC)

Forecast

The report was made 1 hour and 38 minutes ago, at 23:00 UTC
Forecast valid from 21 at 00 UTC to 21 at 09 UTC
Wind 3 kt from the Northwest
Visibility: 0600 m
Few clouds at a height of 10000 ft
Shallow fog
Becoming
from 21 at 05 UTC to 21 at 07 UTC
Wind 5 kt from the West
Visibility: 1500 m
Few clouds at a height of 4000 ft
Scattered clouds at a height of 10000 ft
haze,

TAF: VIDP 202300Z 2100/2109 32003KT 0600 MIFG FEW100 BECMG 2105/2107 27005KT 1500 HZ FEW040 SCT100

Weather observations and forecasts of more than 4000 airports (METAR and TAF reports).

The available stations are represented by yellow and red dots on the map.

Hover mouse over dot to see the name of the station.

Then click to see weather observations and forecasts.

To change the map : click on the green buttons with a black cross to zoom in, on the green button with a dash to zoom out, or on the green arrows for adjacent maps.


METAR-TAF: